Time;durP1;ratioP1;P1;durP2;ratioP2;P2;SDS_P1;SDS_P2;PMS_P1;PMS_P2;Temp;Humidity;BMP_temperature;BMP_pressure;BME280_temperature;BME280_humidity;BME280_pressure;Samples;Min_cycle;Max_cycle;Signal;HPM_P1;HPM_P2
2022/02/09 00:05:25;;;;;;;15.90;12.90;;;9.20;99.90;;;;;;4976330;28;20490;-76
2022/02/09 00:08:01;;;;;;;15.27;12.83;;;9.20;99.90;;;;;;4977093;28;20489;-77
2022/02/09 00:10:32;;;;;;;15.93;13.70;;;9.20;99.90;;;;;;4980312;28;20855;-76
2022/02/09 00:13:21;;;;;;;15.03;13.43;;;9.20;99.90;;;;;;4978772;28;20469;-76
2022/02/09 00:15:56;;;;;;;18.63;14.50;;;9.20;99.90;;;;;;4978649;28;20468;-76
2022/02/09 00:18:33;;;;;;;15.73;13.77;;;9.20;99.90;;;;;;4979391;28;20488;-76
2022/02/09 00:21:17;;;;;;;16.63;13.70;;;9.10;99.90;;;;;;4980408;28;20524;-77
2022/02/09 00:38:10;;;;;;;13.70;12.30;;;9.20;99.90;;;;;;4975221;28;20481;-77
2022/02/09 01:11:43;;;;;;;16.33;14.63;;;9.20;99.90;;;;;;4976501;28;20460;-76
2022/02/09 01:39:20;;;;;;;18.30;14.80;;;9.10;99.90;;;;;;4976497;28;20484;-76
2022/02/09 01:55:51;;;;;;;15.90;14.00;;;9.10;99.90;;;;;;4971662;28;20557;-76
2022/02/09 01:58:22;;;;;;;14.30;12.80;;;9.10;99.90;;;;;;4977790;28;20478;-76
2022/02/09 02:00:55;;;;;;;14.33;12.83;;;9.10;99.90;;;;;;4983059;28;20485;-78
2022/02/09 02:03:23;;;;;;;15.17;13.00;;;9.10;99.90;;;;;;4980696;28;20471;-76
2022/02/09 02:05:56;;;;;;;14.10;12.13;;;9.20;99.90;;;;;;4971671;28;20461;-76
2022/02/09 02:08:24;;;;;;;13.83;12.10;;;9.10;99.90;;;;;;4980556;28;20510;-77
2022/02/09 02:11:04;;;;;;;14.27;12.63;;;9.10;99.90;;;;;;4979301;28;20451;-77
2022/02/09 02:13:58;;;;;;;15.00;13.50;;;9.10;99.90;;;;;;4978826;28;20454;-76
2022/02/09 02:16:33;;;;;;;12.47;11.13;;;9.10;99.90;;;;;;4967046;28;20491;-76
2022/02/09 02:19:07;;;;;;;13.97;12.50;;;9.10;99.90;;;;;;4977160;28;20885;-78
2022/02/09 02:21:52;;;;;;;13.60;11.90;;;9.00;99.90;;;;;;4973199;28;20539;-77
2022/02/09 02:24:55;;;;;;;12.40;11.17;;;9.00;99.90;;;;;;4979640;28;20462;-78
2022/02/09 02:30:32;;;;;;;12.70;11.30;;;9.00;99.90;;;;;;4960124;28;20482;-77
2022/02/09 02:36:20;;;;;;;13.57;11.13;;;9.00;99.90;;;;;;4961596;28;20550;-77
2022/02/09 02:39:22;;;;;;;12.17;10.97;;;8.90;99.90;;;;;;4970303;28;20487;-76
2022/02/09 02:47:55;;;;;;;12.33;11.17;;;9.00;99.90;;;;;;4936101;28;20486;-77
2022/02/09 02:59:19;;;;;;;12.10;10.87;;;9.00;99.90;;;;;;4977938;28;20473;-76
2022/02/09 03:10:30;;;;;;;12.30;11.10;;;8.90;99.90;;;;;;4968190;28;20502;-77
2022/02/09 03:13:04;;;;;;;12.67;11.17;;;8.90;99.90;;;;;;4977303;28;20482;-77
2022/02/09 03:15:37;;;;;;;13.83;11.90;;;8.90;99.90;;;;;;4976981;28;20566;-76
2022/02/09 03:18:31;;;;;;;13.43;12.03;;;8.90;99.90;;;;;;4977119;28;20575;-77
2022/02/09 03:21:10;;;;;;;14.30;12.80;;;8.90;99.90;;;;;;4977096;28;20892;-78
2022/02/09 03:23:46;;;;;;;14.20;12.80;;;8.90;99.90;;;;;;4977673;28;20472;-78
2022/02/09 03:26:47;;;;;;;15.23;13.63;;;8.90;99.90;;;;;;4976685;28;20561;-77
2022/02/09 03:43:28;;;;;;;16.03;14.43;;;8.80;99.90;;;;;;4974117;28;20470;-76
2022/02/09 03:46:19;;;;;;;17.23;15.00;;;8.70;99.90;;;;;;4974039;28;20549;-76
2022/02/09 03:49:03;;;;;;;16.10;14.10;;;8.70;99.90;;;;;;4966488;28;20470;-77
2022/02/09 03:51:52;;;;;;;16.57;14.90;;;8.80;99.90;;;;;;4965617;28;20463;-76
2022/02/09 03:54:31;;;;;;;16.37;14.37;;;8.90;99.90;;;;;;4971421;28;20469;-76
2022/02/09 03:57:21;;;;;;;16.07;14.37;;;8.80;99.90;;;;;;4974467;28;20599;-77
2022/02/09 04:00:00;;;;;;;15.10;13.50;;;8.80;99.90;;;;;;4972170;28;20495;-77
2022/02/09 04:02:32;;;;;;;16.50;14.77;;;8.80;99.90;;;;;;4963413;28;20591;-76
2022/02/09 04:05:00;;;;;;;15.73;14.03;;;8.90;99.90;;;;;;4971674;28;20464;-76
2022/02/09 04:07:28;;;;;;;15.27;13.70;;;8.80;99.90;;;;;;4972121;28;21016;-77
2022/02/09 04:09:59;;;;;;;16.00;14.30;;;8.80;99.90;;;;;;4970881;28;20497;-76
2022/02/09 04:12:35;;;;;;;15.50;13.90;;;8.80;99.90;;;;;;4974411;28;20476;-77
2022/02/09 04:15:17;;;;;;;15.97;14.27;;;8.80;99.90;;;;;;4973572;28;20527;-76
2022/02/09 04:18:01;;;;;;;15.50;13.90;;;8.80;99.90;;;;;;4971554;28;20576;-76
2022/02/09 04:22:27;;;;;;;18.80;15.67;;;8.80;99.90;;;;;;4958801;28;20528;-77
2022/02/09 04:37:21;;;;;;;22.40;19.10;;;8.80;99.90;;;;;;4977919;28;20481;-77
2022/02/09 04:39:53;;;;;;;21.87;19.63;;;8.80;99.90;;;;;;4967540;28;20486;-75
2022/02/09 04:45:33;;;;;;;23.90;20.10;;;8.80;99.90;;;;;;4978597;28;20563;-77
2022/02/09 04:48:23;;;;;;;21.33;18.33;;;8.80;99.90;;;;;;4976574;28;20511;-76
2022/02/09 04:51:01;;;;;;;26.67;18.57;;;8.70;99.90;;;;;;4985746;28;20482;-75
2022/02/09 04:56:26;;;;;;;25.97;17.57;;;8.70;99.90;;;;;;4979582;28;20497;-77
2022/02/09 04:59:13;;;;;;;21.50;18.13;;;8.70;99.90;;;;;;4976833;28;20520;-75
2022/02/09 05:02:08;;;;;;;21.27;17.63;;;8.80;99.90;;;;;;4982991;28;20484;-76
2022/02/09 05:04:58;;;;;;;21.90;18.20;;;8.80;99.90;;;;;;4980981;28;20482;-76
2022/02/09 05:19:10;;;;;;;24.40;19.67;;;8.80;99.90;;;;;;4979528;28;20516;-75
2022/02/09 05:21:58;;;;;;;24.77;19.87;;;8.80;99.90;;;;;;4984079;28;20481;-76
2022/02/09 05:24:41;;;;;;;21.17;18.73;;;8.80;99.90;;;;;;4983293;28;20579;-76
2022/02/09 05:27:19;;;;;;;24.87;19.93;;;8.80;99.90;;;;;;4962248;28;20613;-77
2022/02/09 05:29:47;;;;;;;22.13;19.50;;;8.80;99.90;;;;;;4973968;28;20491;-77
2022/02/09 05:32:15;;;;;;;23.63;20.57;;;8.70;99.90;;;;;;4980269;28;20468;-77
2022/02/09 05:34:43;;;;;;;25.23;21.43;;;8.70;99.90;;;;;;4977455;28;20466;-76
2022/02/09 05:37:11;;;;;;;23.20;20.63;;;8.70;99.90;;;;;;4974708;28;20480;-76
2022/02/09 05:39:40;;;;;;;26.70;21.20;;;8.70;99.90;;;;;;4977866;28;20484;-76
2022/02/09 05:42:11;;;;;;;23.83;19.43;;;8.70;99.90;;;;;;4973676;28;20603;-76
2022/02/09 05:44:40;;;;;;;23.53;20.80;;;8.70;99.90;;;;;;4976534;28;20467;-76
2022/02/09 05:50:18;;;;;;;25.50;20.70;;;8.70;99.90;;;;;;4931982;28;20496;-76
2022/02/09 05:52:59;;;;;;;24.20;19.43;;;8.70;99.90;;;;;;4913366;28;20478;-76
2022/02/09 05:58:33;;;;;;;23.13;19.57;;;8.70;99.90;;;;;;4971454;28;20536;-78
2022/02/09 06:01:03;;;;;;;24.30;20.77;;;8.70;99.90;;;;;;4975849;28;20489;-76
2022/02/09 06:03:33;;;;;;;23.73;19.23;;;8.70;99.90;;;;;;4973385;28;20482;-80
2022/02/09 06:06:03;;;;;;;20.73;18.50;;;8.80;99.90;;;;;;4964573;28;20490;-77
2022/02/09 06:08:38;;;;;;;23.50;19.87;;;8.70;99.90;;;;;;4971930;28;20577;-77
2022/02/09 06:11:23;;;;;;;25.63;19.90;;;8.70;99.90;;;;;;4977293;28;20472;-77
2022/02/09 06:14:10;;;;;;;25.10;19.90;;;8.70;99.90;;;;;;4974539;28;20462;-79
2022/02/09 06:19:44;;;;;;;27.63;18.80;;;8.70;99.90;;;;;;4978465;28;20524;-77
2022/02/09 06:22:12;;;;;;;21.20;17.20;;;8.70;99.90;;;;;;4979691;28;20485;-77
2022/02/09 06:24:41;;;;;;;21.60;17.97;;;8.70;99.90;;;;;;4963892;28;20462;-77
2022/02/09 06:27:12;;;;;;;23.40;17.80;;;8.60;99.90;;;;;;4964679;28;20543;-77
2022/02/09 06:29:45;;;;;;;23.87;18.20;;;8.60;99.90;;;;;;4963229;28;20483;-77
2022/02/09 06:32:13;;;;;;;23.33;17.60;;;8.60;99.90;;;;;;4958173;28;20492;-79
2022/02/09 06:34:43;;;;;;;22.83;18.50;;;8.50;99.90;;;;;;4966222;28;20462;-80
2022/02/09 06:37:17;;;;;;;26.10;18.87;;;8.60;99.90;;;;;;4971240;28;20482;-78
2022/02/09 06:39:48;;;;;;;21.33;17.83;;;8.50;99.90;;;;;;4981382;28;20492;-78
2022/02/09 06:42:22;;;;;;;22.63;18.67;;;8.50;99.90;;;;;;4976923;28;20482;-73
2022/02/09 06:44:50;;;;;;;24.60;17.23;;;8.50;99.90;;;;;;4975655;28;20477;-72
2022/02/09 06:47:23;;;;;;;22.60;18.30;;;8.60;99.90;;;;;;4976659;28;20488;-74
2022/02/09 06:49:57;;;;;;;25.97;18.83;;;8.60;99.90;;;;;;4975737;28;20569;-77
2022/02/09 06:52:25;;;;;;;24.43;17.53;;;8.70;99.90;;;;;;4979607;28;20456;-76
2022/02/09 06:55:11;;;;;;;22.43;18.17;;;8.70;99.90;;;;;;4967822;28;20555;-77
2022/02/09 06:58:01;;;;;;;25.40;18.83;;;8.70;99.90;;;;;;4977291;28;20492;-77
2022/02/09 07:00:30;;;;;;;22.90;17.93;;;8.60;99.90;;;;;;4980613;28;20537;-77
2022/02/09 07:02:59;;;;;;;23.90;18.37;;;8.60;99.90;;;;;;4974992;28;20550;-77
2022/02/09 07:05:27;;;;;;;19.87;17.07;;;8.60;99.90;;;;;;4948475;28;20546;-77
2022/02/09 07:07:55;;;;;;;24.50;17.93;;;8.60;99.90;;;;;;4970181;28;20542;-77
2022/02/09 07:10:23;;;;;;;20.13;17.07;;;8.60;99.90;;;;;;4972759;28;20605;-77
2022/02/09 07:12:52;;;;;;;25.07;17.93;;;8.60;99.90;;;;;;4967363;28;20559;-77
2022/02/09 07:15:28;;;;;;;24.57;18.30;;;8.60;99.90;;;;;;4973670;28;20474;-77
2022/02/09 07:17:56;;;;;;;24.70;17.97;;;8.60;99.90;;;;;;4973929;28;20493;-77
2022/02/09 07:20:29;;;;;;;20.40;17.70;;;8.60;99.90;;;;;;4977772;28;20540;-77
2022/02/09 07:23:00;;;;;;;21.73;17.27;;;8.60;99.90;;;;;;4980079;28;20483;-77
2022/02/09 07:25:32;;;;;;;20.37;17.43;;;8.60;99.90;;;;;;4959235;28;20466;-76
2022/02/09 07:28:05;;;;;;;22.60;17.40;;;8.60;99.90;;;;;;4973464;28;20534;-77
2022/02/09 07:30:35;;;;;;;24.77;18.67;;;8.60;99.90;;;;;;4967230;28;20494;-77
2022/02/09 07:33:04;;;;;;;21.73;17.70;;;8.60;99.90;;;;;;4975665;28;20458;-78
2022/02/09 07:35:32;;;;;;;20.17;17.97;;;8.70;99.90;;;;;;4975856;28;20452;-78
2022/02/09 07:38:01;;;;;;;20.43;16.33;;;8.70;99.90;;;;;;4972929;28;20487;-76
2022/02/09 07:40:29;;;;;;;20.93;18.20;;;8.70;99.90;;;;;;4970477;28;20487;-77
2022/02/09 07:43:02;;;;;;;20.80;17.77;;;8.70;99.90;;;;;;4977687;28;20484;-78
2022/02/09 07:48:38;;;;;;;22.27;18.90;;;8.70;99.90;;;;;;4923175;28;20523;-77
2022/02/09 07:51:16;;;;;;;21.57;17.50;;;8.70;99.90;;;;;;4965738;28;20471;-78
2022/02/09 07:53:51;;;;;;;21.90;18.17;;;8.70;99.90;;;;;;4967098;28;20458;-77
2022/02/09 07:56:19;;;;;;;23.60;17.97;;;8.70;99.90;;;;;;4976998;28;20564;-80
2022/02/09 07:58:47;;;;;;;21.03;18.43;;;8.70;99.90;;;;;;4972660;28;20537;-78
2022/02/09 08:01:17;;;;;;;19.87;17.70;;;8.80;99.90;;;;;;4974436;28;20552;-77
2022/02/09 08:03:45;;;;;;;21.00;17.17;;;8.80;99.90;;;;;;4974311;28;20901;-79
2022/02/09 08:06:13;;;;;;;18.20;16.30;;;8.80;99.90;;;;;;4974969;28;20489;-79
2022/02/09 08:08:43;;;;;;;18.00;15.70;;;8.80;99.90;;;;;;4976636;28;20477;-79
2022/02/09 08:11:17;;;;;;;18.57;16.50;;;8.90;99.90;;;;;;4970778;28;20865;-78
2022/02/09 08:28:49;;;;;;;19.30;14.50;;;8.90;99.90;;;;;;4955244;28;20550;-77
2022/02/09 08:34:02;;;;;;;15.10;13.50;;;8.90;99.90;;;;;;4968613;28;20503;-79
2022/02/09 08:36:30;;;;;;;15.67;13.17;;;8.90;99.90;;;;;;4973982;28;20544;-78
2022/02/09 08:38:59;;;;;;;15.83;14.13;;;8.90;99.90;;;;;;4976935;28;20488;-79
2022/02/09 08:41:27;;;;;;;14.50;12.07;;;8.90;99.90;;;;;;4972729;28;20461;-78
2022/02/09 08:43:55;;;;;;;13.70;12.17;;;8.90;99.90;;;;;;4960008;28;20898;-79
2022/02/09 08:46:24;;;;;;;15.67;12.67;;;8.90;99.90;;;;;;4975064;28;20452;-78
2022/02/09 08:48:52;;;;;;;15.43;12.30;;;9.00;99.90;;;;;;4973920;28;20477;-79
2022/02/09 08:51:24;;;;;;;14.70;11.67;;;9.00;99.90;;;;;;4975667;28;20521;-78
2022/02/09 08:53:53;;;;;;;16.60;12.40;;;8.90;99.90;;;;;;4974032;28;20454;-79
2022/02/09 08:56:23;;;;;;;12.77;10.90;;;9.00;99.90;;;;;;4972573;28;20458;-77
2022/02/09 08:58:51;;;;;;;13.67;10.93;;;9.00;99.90;;;;;;4977450;28;20485;-78
2022/02/09 09:01:31;;;;;;;13.30;11.87;;;9.10;99.90;;;;;;4965766;28;20468;-78
2022/02/09 09:04:03;;;;;;;14.07;10.80;;;9.10;99.90;;;;;;4957119;28;20493;-79
2022/02/09 09:06:38;;;;;;;12.17;10.87;;;9.10;99.90;;;;;;4973946;28;20498;-78
2022/02/09 09:09:22;;;;;;;12.47;11.23;;;9.10;99.90;;;;;;4972686;28;20481;-78
2022/02/09 09:15:01;;;;;;;14.70;10.80;;;9.10;99.90;;;;;;4964653;28;21591;-79
2022/02/09 10:00:00;;;;;;;11.47;10.40;;;9.30;99.90;;;;;;4977913;28;20581;-78
2022/02/09 10:02:35;;;;;;;11.10;9.90;;;9.30;99.90;;;;;;4975294;28;20460;-78
2022/02/09 10:05:32;;;;;;;10.70;9.60;;;9.40;99.90;;;;;;4983196;28;21308;-78
2022/02/09 10:31:47;;;;;;;11.43;10.20;;;9.50;99.90;;;;;;4995690;28;20472;-77
2022/02/09 10:34:20;;;;;;;11.00;9.03;;;9.50;99.90;;;;;;5003326;28;20455;-79
2022/02/09 10:36:51;;;;;;;11.03;9.80;;;9.60;99.90;;;;;;4999642;28;20572;-80
2022/02/09 10:39:24;;;;;;;12.10;10.57;;;9.60;99.90;;;;;;4999413;28;20614;-78
2022/02/09 10:41:59;;;;;;;11.50;9.87;;;9.60;99.90;;;;;;4988861;28;20473;-78
2022/02/09 10:44:45;;;;;;;10.50;8.83;;;9.60;99.90;;;;;;4997318;28;20468;-78
2022/02/09 10:47:27;;;;;;;10.80;8.50;;;9.60;99.90;;;;;;5002368;28;20481;-79
2022/02/09 10:50:15;;;;;;;10.40;9.40;;;9.70;99.90;;;;;;4999963;28;20488;-79
2022/02/09 10:52:49;;;;;;;9.70;8.80;;;9.70;99.90;;;;;;4993174;28;20471;-80
2022/02/09 10:55:31;;;;;;;10.73;8.03;;;9.60;99.90;;;;;;4995002;28;20441;-78
2022/02/09 10:58:01;;;;;;;9.60;8.60;;;9.70;99.90;;;;;;4996185;28;20497;-79
2022/02/09 11:00:33;;;;;;;9.40;8.50;;;9.60;99.90;;;;;;4998723;28;20501;-78
2022/02/09 11:03:02;;;;;;;9.73;8.83;;;9.70;99.90;;;;;;5001552;28;20494;-78
2022/02/09 11:05:31;;;;;;;9.10;8.20;;;9.70;99.90;;;;;;4993575;28;20497;-79
2022/02/09 11:07:59;;;;;;;9.70;8.70;;;9.70;99.90;;;;;;4988552;28;20492;-79
2022/02/09 11:10:27;;;;;;;8.90;8.00;;;9.60;99.90;;;;;;4974862;28;20505;-78
2022/02/09 11:12:56;;;;;;;8.70;7.90;;;9.60;99.90;;;;;;4977736;28;20464;-79
2022/02/09 11:15:25;;;;;;;9.53;8.20;;;9.60;99.90;;;;;;4978776;28;20482;-79
2022/02/09 11:17:53;;;;;;;8.60;7.80;;;9.60;99.90;;;;;;4966187;28;20493;-77
2022/02/09 11:20:28;;;;;;;9.30;8.40;;;9.50;99.90;;;;;;4971445;28;20491;-78
2022/02/09 11:22:59;;;;;;;8.83;7.97;;;9.60;99.90;;;;;;4978572;28;20458;-79
2022/02/09 11:25:31;;;;;;;8.17;7.37;;;9.50;99.90;;;;;;4979169;28;20582;-78
2022/02/09 11:28:18;;;;;;;9.23;8.33;;;9.50;99.90;;;;;;4978152;28;20544;-79
2022/02/09 11:31:04;;;;;;;8.30;7.13;;;9.60;99.90;;;;;;4957985;28;20489;-78
2022/02/09 11:34:02;;;;;;;7.83;7.03;;;9.60;99.90;;;;;;4981150;28;20469;-78
2022/02/09 11:36:37;;;;;;;7.27;6.50;;;9.60;99.90;;;;;;4949522;28;20494;-78
2022/02/09 11:39:13;;;;;;;7.23;6.17;;;9.60;99.90;;;;;;4966813;28;20489;-79
2022/02/09 11:41:56;;;;;;;7.13;6.23;;;9.60;99.90;;;;;;4978868;28;20473;-78
2022/02/09 11:44:49;;;;;;;6.53;5.70;;;9.60;99.90;;;;;;4975905;28;20465;-78
2022/02/09 11:47:40;;;;;;;7.00;6.30;;;9.60;99.90;;;;;;4978691;28;20493;-78
2022/02/09 11:59:17;;;;;;;6.00;5.40;;;9.50;99.90;;;;;;4977368;28;20484;-78
2022/02/09 12:08:45;;;;;;;6.47;5.97;;;9.50;99.90;;;;;;4994487;28;20485;-78
2022/02/09 12:11:10;;;;;;;6.00;5.40;;;9.60;99.90;;;;;;4970771;28;20480;-78
2022/02/09 12:13:52;;;;;;;5.60;4.77;;;9.60;99.90;;;;;;4960206;28;20671;-80
2022/02/09 12:16:35;;;;;;;6.07;5.47;;;9.60;99.90;;;;;;4974150;28;20465;-79
2022/02/09 12:19:10;;;;;;;5.03;4.60;;;9.60;99.90;;;;;;4961439;28;20516;-78
2022/02/09 12:21:48;;;;;;;6.57;4.77;;;9.70;99.90;;;;;;4972222;28;20465;-78
2022/02/09 12:24:27;;;;;;;5.43;4.53;;;9.60;99.90;;;;;;4976466;28;20457;-78
2022/02/09 12:26:58;;;;;;;5.07;4.57;;;9.60;99.90;;;;;;4986228;28;20494;-77
2022/02/09 12:29:31;;;;;;;4.67;4.27;;;9.60;99.90;;;;;;4994839;28;20492;-78
2022/02/09 12:32:00;;;;;;;5.20;4.70;;;9.60;99.90;;;;;;4992511;28;20475;-78
2022/02/09 12:34:34;;;;;;;6.20;4.73;;;9.60;99.90;;;;;;4990620;28;20509;-78
2022/02/09 12:37:12;;;;;;;5.47;4.97;;;9.60;99.90;;;;;;4990844;28;20515;-78
2022/02/09 12:39:49;;;;;;;5.30;4.80;;;9.70;99.90;;;;;;4980428;28;20500;-78
2022/02/09 12:42:18;;;;;;;5.43;4.70;;;9.70;99.90;;;;;;4985490;28;20550;-77
2022/02/09 12:44:58;;;;;;;4.97;4.47;;;9.60;99.90;;;;;;4992359;28;20517;-76
2022/02/09 12:47:30;;;;;;;6.07;4.47;;;9.60;99.90;;;;;;4976972;28;20513;-77
2022/02/09 12:49:59;;;;;;;5.97;5.37;;;9.60;99.90;;;;;;4983881;28;20486;-79
2022/02/09 12:52:29;;;;;;;4.97;4.57;;;9.60;99.90;;;;;;5001925;28;20528;-79
2022/02/09 12:55:15;;;;;;;9.37;5.30;;;9.60;99.90;;;;;;4988119;28;20513;-81
2022/02/09 12:57:47;;;;;;;5.93;5.17;;;9.60;99.90;;;;;;4980696;28;20487;-77
2022/02/09 13:00:24;;;;;;;5.03;4.63;;;9.60;99.90;;;;;;4977619;28;20588;-81
2022/02/09 13:02:54;;;;;;;5.87;5.30;;;9.60;99.90;;;;;;4983310;28;20473;-77
2022/02/09 13:05:22;;;;;;;6.97;4.63;;;9.60;99.90;;;;;;4982543;28;20482;-78
2022/02/09 13:07:55;;;;;;;5.00;4.60;;;9.60;99.90;;;;;;4976215;28;20509;-79
2022/02/09 13:10:26;;;;;;;6.97;4.83;;;9.50;99.90;;;;;;4977033;28;21110;-80
2022/02/09 13:12:57;;;;;;;5.40;4.93;;;9.50;99.90;;;;;;4969061;28;20555;-78
2022/02/09 13:15:32;;;;;;;4.37;4.07;;;9.50;99.90;;;;;;4987421;28;20463;-80
2022/02/09 13:21:20;;;;;;;4.43;4.03;;;9.60;99.90;;;;;;4968963;28;20592;-77
2022/02/09 14:15:15;;;;;;;5.17;4.77;;;9.40;99.90;;;;;;4969598;28;20458;-78
2022/02/09 14:54:04;;;;;;;5.00;4.60;;;9.40;99.90;;;;;;4910560;28;20467;-77
2022/02/09 14:56:48;;;;;;;4.70;4.30;;;9.30;99.90;;;;;;4976311;28;20877;-76
2022/02/09 14:59:28;;;;;;;4.77;4.40;;;9.30;99.90;;;;;;4977313;28;20476;-78
2022/02/09 15:01:59;;;;;;;4.50;4.10;;;9.30;99.90;;;;;;4973899;28;20526;-77
2022/02/09 15:04:36;;;;;;;4.60;4.20;;;9.30;99.90;;;;;;4977330;28;20454;-78
2022/02/09 15:07:24;;;;;;;4.53;4.13;;;9.30;99.90;;;;;;4978219;28;20493;-78
2022/02/09 15:09:56;;;;;;;4.13;3.73;;;9.30;99.90;;;;;;4969815;28;20498;-77
2022/02/09 15:12:29;;;;;;;3.97;3.67;;;9.30;99.90;;;;;;4974098;28;20480;-75
2022/02/09 15:15:23;;;;;;;3.87;3.60;;;9.20;99.90;;;;;;4977930;28;20472;-75
2022/02/09 15:18:17;;;;;;;3.77;3.43;;;9.30;99.90;;;;;;4976298;28;20498;-77
2022/02/09 15:21:01;;;;;;;3.50;3.30;;;9.40;99.90;;;;;;4972154;28;20496;-76
2022/02/09 15:23:30;;;;;;;3.90;3.57;;;9.30;99.90;;;;;;4978344;28;20493;-77
2022/02/09 15:26:00;;;;;;;3.80;3.50;;;9.30;99.90;;;;;;4979292;28;20481;-78
2022/02/09 15:28:30;;;;;;;3.73;3.43;;;9.30;99.90;;;;;;4964174;28;20469;-77
2022/02/09 15:31:06;;;;;;;3.73;3.43;;;9.30;99.90;;;;;;4972558;28;20474;-78
2022/02/09 15:33:40;;;;;;;3.60;3.30;;;9.30;99.90;;;;;;4968084;28;20465;-78
2022/02/09 15:36:44;;;;;;;3.90;3.50;;;9.30;99.90;;;;;;4970600;28;20465;-78
2022/02/09 15:39:16;;;;;;;3.43;3.13;;;9.30;99.90;;;;;;4977204;28;21020;-78
2022/02/09 15:42:00;;;;;;;2.90;2.70;;;9.30;99.90;;;;;;4976943;28;20569;-76
2022/02/09 15:59:00;;;;;;;2.20;2.10;;;9.20;99.90;;;;;;4957574;28;20492;-78
2022/02/09 16:07:56;;;;;;;1.73;1.63;;;9.20;99.90;;;;;;4942444;28;20486;-78
2022/02/09 16:10:02;;;;;;;1.87;1.60;;;9.20;99.90;;;;;;4980271;28;20497;-78
2022/02/09 16:23:47;;;;;;;3.10;2.20;;;9.00;99.90;;;;;;4980953;28;20469;-77
2022/02/09 16:37:48;;;;;;;5.07;3.33;;;8.80;99.90;;;;;;4987551;28;20567;-77
2022/02/09 16:46:12;;;;;;;6.43;3.30;;;8.70;99.90;;;;;;4980092;28;20527;-79
2022/02/09 16:48:45;;;;;;;6.10;3.00;;;8.70;99.90;;;;;;4977886;28;20486;-77
2022/02/09 16:51:17;;;;;;;5.97;3.70;;;8.70;99.90;;;;;;4982301;28;20460;-79
2022/02/09 16:53:48;;;;;;;10.07;3.70;;;8.70;99.90;;;;;;4964941;28;21164;-78
2022/02/09 16:56:41;;;;;;;6.53;3.80;;;8.70;99.90;;;;;;4989354;28;20457;-77
2022/02/09 17:18:58;;;;;;;6.93;4.07;;;8.60;99.90;;;;;;4951011;28;20974;-76
2022/02/09 17:21:27;;;;;;;9.67;4.17;;;8.60;99.90;;;;;;4981835;28;20501;-77
2022/02/09 17:23:58;;;;;;;8.87;5.50;;;8.60;99.90;;;;;;4979071;28;20599;-78
2022/02/09 17:26:26;;;;;;;8.73;4.10;;;8.60;99.90;;;;;;4978349;28;20539;-77
2022/02/09 17:29:00;;;;;;;9.47;4.50;;;8.50;99.90;;;;;;4981512;28;20499;-78
2022/02/09 17:31:37;;;;;;;7.40;4.57;;;8.50;99.90;;;;;;4980003;28;20464;-76
2022/02/09 17:34:40;;;;;;;9.70;4.43;;;8.50;99.90;;;;;;4971895;28;20468;-78
2022/02/09 17:53:49;;;;;;;10.57;5.33;;;8.50;99.90;;;;;;4982616;28;20490;-78
2022/02/09 17:56:23;;;;;;;15.70;4.93;;;8.50;99.90;;;;;;4983340;28;20472;-81
2022/02/09 17:58:53;;;;;;;11.57;4.43;;;8.40;99.90;;;;;;4980009;28;20456;-81
2022/02/09 18:01:22;;;;;;;10.13;4.23;;;8.40;99.90;;;;;;4982521;28;20504;-79
2022/02/09 18:03:52;;;;;;;12.53;4.17;;;8.40;99.90;;;;;;4983315;28;20561;-80
2022/02/09 18:06:29;;;;;;;8.33;4.23;;;8.30;99.90;;;;;;4996839;28;20462;-81
2022/02/09 18:09:03;;;;;;;8.20;4.53;;;8.30;99.90;;;;;;4997086;28;20486;-79
2022/02/09 18:11:42;;;;;;;7.17;4.53;;;8.30;99.90;;;;;;4979589;28;20451;-78
2022/02/09 18:25:53;;;;;;;7.07;4.17;;;8.30;99.90;;;;;;4925622;29;20452;-78
2022/02/09 18:31:10;;;;;;;8.57;4.70;;;8.30;99.90;;;;;;4970935;28;20503;-78
2022/02/09 18:34:07;;;;;;;8.20;4.50;;;8.30;99.90;;;;;;4977020;28;20462;-78
2022/02/09 18:45:22;;;;;;;13.07;5.30;;;8.30;99.90;;;;;;5045651;27;21030;-78
2022/02/09 18:48:02;;;;;;;8.30;4.77;;;8.30;99.90;;;;;;5032238;28;20572;-77
2022/02/09 19:04:34;;;;;;;8.07;4.80;;;8.20;99.90;;;;;;5047253;28;20457;-80
2022/02/09 19:18:30;;;;;;;11.27;6.17;;;8.10;99.90;;;;;;5051173;28;20489;-80
2022/02/09 19:26:16;;;;;;;16.83;5.00;;;8.20;99.90;;;;;;5045640;28;20545;-80
2022/02/09 19:26:53;;;;;;;11.03;5.07;;;8.20;99.90;;;;;;5047031;28;20545;-78
2022/02/09 19:32:23;;;;;;;9.80;5.57;;;8.20;99.90;;;;;;5041254;28;20466;-77
2022/02/09 19:40:51;;;;;;;7.00;4.13;;;8.20;99.90;;;;;;5049965;28;20480;-77
2022/02/09 19:46:20;;;;;;;11.73;5.57;;;8.20;99.90;;;;;;5042666;28;20978;-78
2022/02/09 19:48:57;;;;;;;8.53;4.37;;;8.20;99.90;;;;;;5046713;28;20450;-77
2022/02/09 19:51:39;;;;;;;10.20;4.80;;;8.10;99.90;;;;;;5051062;28;20490;-80
2022/02/09 19:54:13;;;;;;;7.30;4.70;;;8.10;99.90;;;;;;5049175;28;20849;-78
2022/02/09 19:56:48;;;;;;;7.90;4.10;;;8.20;99.90;;;;;;5027825;28;20510;-78
2022/02/09 19:59:18;;;;;;;10.70;4.63;;;8.10;99.90;;;;;;5029423;28;20490;-78
2022/02/09 20:01:47;;;;;;;8.30;4.43;;;8.10;99.90;;;;;;5031999;28;20459;-83
2022/02/09 20:04:18;;;;;;;10.27;4.93;;;8.10;99.90;;;;;;5033508;28;20565;-83
2022/02/09 20:06:49;;;;;;;12.40;5.17;;;8.10;99.90;;;;;;5036164;28;20515;-83
2022/02/09 20:09:18;;;;;;;9.83;5.50;;;8.10;99.90;;;;;;5032805;28;20520;-83
2022/02/09 20:11:48;;;;;;;8.20;5.60;;;8.00;99.90;;;;;;5037125;28;20550;-78
2022/02/09 20:14:17;;;;;;;9.50;5.93;;;8.00;99.90;;;;;;5041906;28;20477;-81
2022/02/09 20:16:45;;;;;;;10.67;5.30;;;8.10;99.90;;;;;;5034743;28;20494;-78
2022/02/09 20:19:14;;;;;;;9.73;5.50;;;8.10;99.90;;;;;;5041146;28;21096;-81
2022/02/09 20:21:44;;;;;;;12.03;7.53;;;8.10;99.90;;;;;;5038778;28;20508;-77
2022/02/09 20:24:16;;;;;;;10.33;7.77;;;8.10;99.90;;;;;;5029671;28;20520;-86
2022/02/09 20:26:44;;;;;;;12.67;7.63;;;8.10;99.90;;;;;;5046633;28;20517;-81
2022/02/09 20:29:17;;;;;;;8.60;6.80;;;8.10;99.90;;;;;;5048073;28;20477;-81
2022/02/09 20:31:51;;;;;;;14.20;7.00;;;8.10;99.90;;;;;;5050991;28;20486;-81
2022/02/09 20:34:25;;;;;;;13.50;7.20;;;8.00;99.90;;;;;;5051051;28;20548;-84
2022/02/09 20:36:53;;;;;;;9.83;7.50;;;8.00;99.90;;;;;;5052909;28;20481;-84
2022/02/09 20:39:27;;;;;;;14.57;8.00;;;8.00;99.90;;;;;;5053053;28;20480;-84
2022/02/09 20:41:57;;;;;;;10.90;7.10;;;8.00;99.90;;;;;;5051165;28;20469;-80
2022/02/09 20:44:32;;;;;;;10.97;7.17;;;7.90;99.90;;;;;;5052427;28;20481;-80
2022/02/09 20:47:00;;;;;;;12.87;8.57;;;7.90;99.90;;;;;;5042730;28;20521;-76
2022/02/09 20:49:28;;;;;;;16.33;8.50;;;7.90;99.90;;;;;;5047481;28;20472;-78
2022/02/09 20:51:58;;;;;;;10.33;6.47;;;7.90;99.90;;;;;;5068441;22;20499;-86
2022/02/09 20:54:28;;;;;;;13.73;7.70;;;7.90;99.90;;;;;;5044276;28;20511;-79
2022/02/09 20:56:57;;;;;;;11.93;7.50;;;7.90;99.90;;;;;;5044150;28;20463;-78
2022/02/09 20:59:26;;;;;;;11.80;7.10;;;7.90;99.90;;;;;;5048735;28;20466;-78
2022/02/09 21:02:00;;;;;;;13.43;8.13;;;7.90;99.90;;;;;;5052516;28;20494;-79
2022/02/09 21:04:30;;;;;;;11.47;7.40;;;7.90;99.90;;;;;;5061553;28;20480;-83
2022/02/09 21:07:08;;;;;;;11.40;7.30;;;7.80;99.90;;;;;;5057553;28;20456;-81
2022/02/09 21:09:46;;;;;;;13.20;7.50;;;7.80;99.90;;;;;;5056625;28;20478;-78
2022/02/09 21:12:28;;;;;;;12.00;8.37;;;7.80;99.90;;;;;;5053479;28;20496;-78
2022/02/09 21:15:14;;;;;;;13.70;8.20;;;7.80;99.90;;;;;;5049602;28;20494;-78
2022/02/09 21:20:47;;;;;;;15.10;7.93;;;7.80;99.90;;;;;;5050693;28;20484;-79
2022/02/09 21:54:27;;;;;;;9.67;6.53;;;7.70;99.90;;;;;;5071042;28;20567;-79
2022/02/09 21:56:59;;;;;;;8.87;5.77;;;7.60;99.90;;;;;;5072480;28;20466;-78
2022/02/09 21:59:41;;;;;;;10.90;7.47;;;7.60;99.90;;;;;;5069154;28;20470;-77
2022/02/09 22:16:44;;;;;;;14.83;6.80;;;7.40;99.90;;;;;;5068579;28;20494;-76
2022/02/09 22:19:31;;;;;;;9.60;5.80;;;7.40;99.90;;;;;;5066346;28;20522;-78
2022/02/09 22:22:16;;;;;;;13.43;6.40;;;7.40;99.90;;;;;;5069651;28;20620;-76
2022/02/09 22:27:50;;;;;;;11.33;6.37;;;7.40;99.90;;;;;;5063305;28;20467;-77
2022/02/09 22:50:12;;;;;;;7.10;5.00;;;7.20;99.90;;;;;;5063360;28;20469;-78
2022/02/09 22:55:28;;;;;;;9.27;5.20;;;7.20;99.90;;;;;;5061269;28;20483;-77
2022/02/09 22:58:04;;;;;;;9.90;4.60;;;7.20;99.90;;;;;;5060324;28;20810;-77
2022/02/09 23:00:47;;;;;;;8.27;4.83;;;7.20;99.90;;;;;;5057285;28;20566;-77
2022/02/09 23:03:21;;;;;;;9.83;5.30;;;7.10;99.90;;;;;;5053856;28;20466;-76
2022/02/09 23:06:25;;;;;;;9.23;4.60;;;7.10;99.90;;;;;;5050457;28;20454;-77
2022/02/09 23:14:45;;;;;;;8.97;5.50;;;7.00;99.90;;;;;;5021780;28;20480;-77
2022/02/09 23:20:42;;;;;;;9.80;5.60;;;6.90;99.90;;;;;;5058736;28;20520;-77
2022/02/09 23:23:35;;;;;;;10.20;5.40;;;6.90;99.90;;;;;;5060867;28;20514;-77
2022/02/09 23:54:17;;;;;;;12.00;7.73;;;6.90;99.90;;;;;;5058705;28;20501;-77
